Time;durP1;ratioP1;P1;durP2;ratioP2;P2;SDS_P1;SDS_P2;PMS_P1;PMS_P2;Temp;Humidity;BMP_temperature;BMP_pressure;BME280_temperature;BME280_humidity;BME280_pressure;Samples;Min_cycle;Max_cycle;Signal;HPM_P1;HPM_P2
2023/05/19 04:15:42;;;;;;;6.20;4.73;;;;;;;-144.30;80.24;85774.16;5087402;27;20576;-54
2023/05/19 04:18:09;;;;;;;5.50;5.10;;;;;;;-144.30;80.41;85724.47;5087084;28;20195;-54
2023/05/19 04:20:36;;;;;;;8.13;5.43;;;;;;;-144.30;80.07;85742.34;5086703;28;20202;-53
2023/05/19 04:23:03;;;;;;;7.97;5.10;;;;;;;-144.30;79.96;85730.41;5087409;28;20191;-54
2023/05/19 04:25:30;;;;;;;7.23;5.03;;;;;;;-144.30;79.42;85746.31;5080153;28;21288;-55
2023/05/19 04:27:57;;;;;;;5.63;5.17;;;;;;;-144.30;78.72;85746.31;5085521;28;20306;-53
2023/05/19 04:30:24;;;;;;;7.10;5.10;;;;;;;-144.30;78.71;85726.44;5074287;28;20242;-54
2023/05/19 04:32:53;;;;;;;7.80;5.03;;;;;;;-144.30;78.17;85712.53;5074042;28;20227;-52
2023/05/19 04:35:21;;;;;;;5.47;4.30;;;;;;;-144.30;77.51;85688.66;5076978;28;20304;-54
2023/05/19 04:37:48;;;;;;;5.47;4.90;;;;;;;-144.30;77.50;85666.81;5078908;28;20216;-53
2023/05/19 04:40:16;;;;;;;4.87;4.47;;;;;;;-144.30;77.24;85656.88;5078820;28;20215;-53
2023/05/19 04:42:44;;;;;;;7.80;4.87;;;;;;;-144.30;76.95;85658.84;5074499;28;20238;-53
2023/05/19 04:45:12;;;;;;;5.47;4.93;;;;;;;-144.30;76.22;85658.84;5086649;28;20699;-54
2023/05/19 04:47:40;;;;;;;8.70;7.80;;;;;;;-144.30;75.57;85623.06;5086736;28;20614;-54
2023/05/19 04:50:10;;;;;;;21.93;14.40;;;;;;;-144.30;74.95;85615.13;5085263;28;20343;-51
2023/05/19 04:52:37;;;;;;;6.37;5.50;;;;;;;-144.30;73.34;85483.91;5080536;28;20206;-51
2023/05/19 04:55:04;;;;;;;8.93;4.90;;;;;;;-144.30;70.35;85318.91;5084034;28;20211;-51
2023/05/19 04:57:31;;;;;;;5.20;4.80;;;;;;;-144.30;65.18;85054.53;5082520;28;20203;-52
2023/05/19 04:59:59;;;;;;;7.43;4.55;;;;;;;-144.30;59.22;84814.00;5085466;28;20197;-51
2023/05/19 05:02:27;;;;;;;6.05;4.38;;;;;;;-144.30;54.91;84573.53;5085227;28;20199;-54
2023/05/19 05:04:55;;;;;;;4.85;4.38;;;;;;;-144.30;51.77;84311.19;5085227;28;20188;-55
2023/05/19 05:07:23;;;;;;;5.18;4.53;;;;;;;-144.30;48.69;84430.44;5085136;28;20196;-55
2023/05/19 05:09:50;;;;;;;9.98;4.60;;;;;;;-144.30;46.63;84076.69;5085072;28;20187;-55
2023/05/19 05:12:18;;;;;;;20.90;4.90;;;;;;;-144.30;45.79;83969.38;5084968;28;20188;-55
2023/05/19 05:14:46;;;;;;;5.30;4.93;;;;;;;-144.30;42.98;83828.31;5084703;28;20343;-55
2023/05/19 05:17:13;;;;;;;6.22;4.43;;;;;;;-144.30;42.46;83738.88;5082155;28;25081;-55
2023/05/19 05:19:41;;;;;;;4.88;4.45;;;;;;;-144.30;41.00;83587.88;5085315;28;20314;-54
2023/05/19 05:22:08;;;;;;;5.57;4.82;;;;;;;-144.30;39.74;83556.09;5086007;28;20288;-53
2023/05/19 05:24:37;;;;;;;4.57;4.03;;;;;;;-144.30;39.31;83524.31;5086539;28;20211;-53
2023/05/19 05:27:05;;;;;;;5.15;4.75;;;;;;;-144.30;39.27;83585.91;5072324;28;20295;-53
2023/05/19 05:29:31;;;;;;;4.60;4.30;;;;;;;-144.30;39.50;83615.69;5073024;28;20197;-53
2023/05/19 05:31:58;;;;;;;4.97;4.35;;;;;;;-144.30;39.12;83542.19;5072687;28;20206;-53
2023/05/19 05:34:25;;;;;;;5.68;4.38;;;;;;;-144.30;38.44;83403.09;5072549;28;20241;-54
2023/05/19 05:36:52;;;;;;;7.10;4.60;;;;;;;-144.30;37.52;83329.59;5072547;28;20210;-54
2023/05/19 05:39:19;;;;;;;8.70;5.22;;;;;;;-144.30;36.70;83291.84;5072380;28;20216;-55
2023/05/19 05:41:47;;;;;;;6.53;4.65;;;;;;;-144.30;36.71;83260.06;5072372;28;20202;-51
2023/05/19 05:44:14;;;;;;;5.10;4.60;;;;;;;-144.30;36.29;83285.88;5072303;28;20205;-52
2023/05/19 05:46:42;;;;;;;6.53;5.00;;;;;;;-144.30;36.00;83224.28;5071176;28;20682;-52
2023/05/19 05:49:11;;;;;;;5.03;4.30;;;;;;;-144.30;35.77;83182.56;5072147;28;20278;-52
2023/05/19 05:51:38;;;;;;;6.45;4.57;;;;;;;-144.30;35.48;83132.91;5072206;28;20291;-55
2023/05/19 05:54:07;;;;;;;5.90;5.38;;;;;;;-144.30;35.11;83136.88;5072428;28;20769;-56
2023/05/19 05:56:35;;;;;;;5.80;5.22;;;;;;;-144.30;34.73;83031.59;5072212;28;20287;-54
2023/05/19 05:59:04;;;;;;;7.60;4.68;;;;;;;-144.30;34.04;82882.59;5072385;28;20204;-55
2023/05/19 06:01:31;;;;;;;6.05;5.47;;;;;;;-144.30;33.08;82737.59;5072152;28;20196;-55
2023/05/19 06:03:58;;;;;;;6.28;5.68;;;;;;;-144.30;33.05;82874.66;5072210;28;20578;-56
2023/05/19 06:06:25;;;;;;;8.43;4.68;;;;;;;-144.30;33.91;83019.69;5071876;28;20250;-56
2023/05/19 06:08:52;;;;;;;6.80;5.38;;;;;;;-144.30;34.11;83073.31;5071949;28;20279;-55
2023/05/19 06:11:20;;;;;;;5.63;5.18;;;;;;;-144.30;34.64;83099.13;5071849;28;20283;-55
2023/05/19 06:13:47;;;;;;;5.78;5.28;;;;;;;-144.30;33.99;83083.25;5071790;28;20263;-55
2023/05/19 06:16:15;;;;;;;5.90;5.38;;;;;;;-144.30;34.04;83069.34;5071649;28;20202;-56
2023/05/19 06:18:42;;;;;;;5.78;5.28;;;;;;;-144.30;34.03;83111.06;5066108;28;20668;-56
2023/05/19 06:21:12;;;;;;;6.10;5.55;;;;;;;-144.30;34.54;83154.75;5051642;28;20618;-56
2023/05/19 06:23:39;;;;;;;12.68;5.93;;;;;;;-144.30;35.69;83510.41;5058189;28;20315;-58
2023/05/19 06:26:06;;;;;;;5.97;5.57;;;;;;;-144.30;37.66;83730.94;5058284;28;20256;-55
2023/05/19 06:28:33;;;;;;;6.38;5.97;;;;;;;-144.30;40.11;84005.16;5061200;28;20232;-55
2023/05/19 06:31:00;;;;;;;6.60;5.65;;;;;;;-144.30;40.02;83897.84;5063168;28;20252;-55
2023/05/19 06:33:28;;;;;;;9.98;9.10;;;;;;;-144.30;40.57;84098.56;5063401;28;20610;-54
2023/05/19 06:35:55;;;;;;;8.48;7.75;;;;;;;-144.30;41.54;83975.34;5069314;28;20635;-55
2023/05/19 06:38:22;;;;;;;20.08;18.00;;;;;;;-144.30;41.81;84116.44;5067712;28;20198;-55
2023/05/19 06:40:49;;;;;;;9.93;9.10;;;;;;;-144.30;42.36;84176.06;5069551;28;20196;-55
2023/05/19 06:43:16;;;;;;;9.27;8.68;;;;;;;-144.30;42.68;84072.72;5071160;28;20204;-55
2023/05/19 06:45:43;;;;;;;12.30;11.02;;;;;;;-144.30;41.92;83991.25;5071240;28;20196;-55
2023/05/19 06:48:10;;;;;;;11.18;8.40;;;;;;;-144.30;41.45;84112.47;5071341;28;20655;-53
2023/05/19 06:50:38;;;;;;;11.40;7.50;;;;;;;-144.30;41.75;83999.19;5071573;28;20210;-53
2023/05/19 06:53:05;;;;;;;10.70;7.57;;;;;;;-144.30;40.67;83933.63;5071465;28;20222;-54
2023/05/19 06:55:32;;;;;;;10.95;9.60;;;;;;;-144.30;39.58;83709.09;5071108;28;20603;-54
2023/05/19 06:57:59;;;;;;;12.18;9.68;;;;;;;-144.30;39.73;83957.47;5071015;28;20585;-56
2023/05/19 07:00:26;;;;;;;14.13;8.45;;;;;;;-144.30;40.94;84036.94;5070900;28;20283;-56
2023/05/19 07:02:53;;;;;;;9.77;7.20;;;;;;;-144.30;40.86;83929.66;5070972;28;20291;-56
2023/05/19 07:05:20;;;;;;;8.95;7.32;;;;;;;-144.30;40.73;84009.13;5070684;28;20204;-56
2023/05/19 07:07:48;;;;;;;13.75;6.50;;;;;;;-144.30;40.82;83979.31;5070827;28;20200;-55
2023/05/19 07:10:15;;;;;;;7.53;6.82;;;;;;;-144.30;41.50;84027.00;5070735;28;20199;-56
2023/05/19 07:12:42;;;;;;;12.25;7.32;;;;;;;-144.30;42.08;84032.97;5070644;28;20619;-55
2023/05/19 07:15:10;;;;;;;10.93;7.45;;;;;;;-144.30;41.42;83961.44;5070506;28;20691;-55
2023/05/19 07:17:37;;;;;;;7.72;6.97;;;;;;;-144.30;40.74;83927.66;5071033;28;20200;-52
2023/05/19 07:20:05;;;;;;;13.40;8.05;;;;;;;-144.30;40.74;83881.97;5070695;28;20809;-52
2023/05/19 07:22:33;;;;;;;11.23;8.65;;;;;;;-144.30;39.87;83770.69;5070218;28;20207;-53
2023/05/19 07:25:02;;;;;;;16.20;8.38;;;;;;;-144.30;40.27;83788.56;5070408;28;20588;-55
2023/05/19 07:27:29;;;;;;;7.78;7.28;;;;;;;-144.30;40.02;83854.13;5070502;28;20290;-56
2023/05/19 07:29:56;;;;;;;11.20;9.98;;;;;;;-144.30;40.56;83778.63;5070746;28;20270;-54
2023/05/19 07:32:22;;;;;;;35.75;9.48;;;;;;;-144.30;39.53;83693.19;5070671;28;20195;-53
2023/05/19 07:34:49;;;;;;;9.32;8.38;;;;;;;-144.30;38.32;83544.16;5070397;28;20231;-56
2023/05/19 07:37:16;;;;;;;9.70;8.73;;;;;;;-144.30;37.30;83428.94;5070320;28;20202;-56
2023/05/19 07:39:43;;;;;;;9.77;8.70;;;;;;;-144.30;36.14;83341.50;5070210;28;20482;-54
2023/05/19 07:42:11;;;;;;;15.75;10.05;;;;;;;-144.30;35.92;83339.53;5070453;28;20210;-56
2023/05/19 07:44:38;;;;;;;11.80;10.35;;;;;;;-144.30;35.42;83119.00;5070470;28;20199;-56
2023/05/19 07:47:06;;;;;;;9.43;8.52;;;;;;;-144.30;34.47;82981.94;5067152;28;20590;-53
2023/05/19 07:49:32;;;;;;;15.15;10.00;;;;;;;-144.30;34.51;83001.78;5068536;28;20222;-53
2023/05/19 07:52:00;;;;;;;11.65;9.70;;;;;;;-144.30;34.63;83234.22;5068944;28;20456;-53
2023/05/19 07:54:27;;;;;;;11.82;8.43;;;;;;;-144.30;35.27;83343.50;5065830;28;20197;-53
2023/05/19 07:56:53;;;;;;;14.48;11.15;;;;;;;-144.30;36.03;83464.69;5068830;28;20611;-54
2023/05/19 07:59:23;;;;;;;13.77;8.77;;;;;;;-144.30;36.37;83472.66;5068721;28;20196;-52
2023/05/19 08:01:50;;;;;;;9.13;7.85;;;;;;;-144.30;35.63;83365.34;5066599;28;20598;-52
2023/05/19 08:04:16;;;;;;;11.32;8.73;;;;;;;-144.30;35.30;83226.28;5068697;28;20223;-54
2023/05/19 08:06:44;;;;;;;11.05;8.90;;;;;;;-144.30;34.47;83132.91;5068474;28;20198;-56
2023/05/19 08:09:11;;;;;;;9.13;8.23;;;;;;;-144.30;33.42;83059.41;5068996;28;20742;-55
2023/05/19 08:11:38;;;;;;;12.60;7.40;;;;;;;-144.30;33.04;83075.31;5068663;28;20192;-53
2023/05/19 08:14:05;;;;;;;8.35;7.72;;;;;;;-144.30;32.98;82964.06;5068446;28;20262;-55
2023/05/19 08:16:33;;;;;;;8.30;7.72;;;;;;;-144.30;32.55;83027.63;5068371;28;20307;-53
2023/05/19 08:19:02;;;;;;;8.07;7.50;;;;;;;-144.30;32.76;82854.78;5068446;28;20192;-56
2023/05/19 08:21:30;;;;;;;11.20;7.93;;;;;;;-144.30;33.02;83037.56;5066040;28;20199;-52
2023/05/19 08:23:57;;;;;;;8.48;7.72;;;;;;;-144.30;32.85;83051.47;5068635;28;20196;-54
2023/05/19 08:26:23;;;;;;;10.32;8.10;;;;;;;-144.30;33.67;83047.50;5068469;28;20196;-56
2023/05/19 08:28:50;;;;;;;8.60;7.75;;;;;;;-144.30;33.60;83075.31;5068453;28;20191;-56
2023/05/19 08:31:18;;;;;;;9.05;8.32;;;;;;;-144.30;33.26;83087.22;5068717;28;20645;-57
2023/05/19 08:33:46;;;;;;;9.55;8.48;;;;;;;-144.30;33.61;83099.13;5068181;28;20223;-53
2023/05/19 08:36:13;;;;;;;8.88;8.05;;;;;;;-144.30;33.97;83095.16;5068134;28;20216;-56
2023/05/19 08:38:40;;;;;;;9.73;8.23;;;;;;;-144.30;33.92;83138.88;5068708;28;20283;-55
2023/05/19 08:41:07;;;;;;;9.93;8.55;;;;;;;-144.30;33.72;83130.94;5065614;28;20196;-56
2023/05/19 08:43:34;;;;;;;8.80;8.00;;;;;;;-144.30;33.74;83232.25;5068425;28;20237;-56
2023/05/19 08:46:01;;;;;;;12.38;11.23;;;;;;;-144.30;33.76;83230.25;5068684;28;20645;-55
2023/05/19 08:48:29;;;;;;;32.47;17.80;;;;;;;-144.30;34.16;83289.84;5069186;28;20210;-53
2023/05/19 08:51:07;;;;;;;12.93;9.25;;;;;;;-144.30;34.30;83337.53;5069659;28;20558;-53
2023/05/19 08:53:37;;;;;;;13.25;11.00;;;;;;;-144.30;34.53;83252.09;5069323;28;20211;-53
2023/05/19 08:56:11;;;;;;;12.30;10.60;;;;;;;-144.30;34.54;83305.75;5069003;28;20263;-53
2023/05/19 08:58:40;;;;;;;12.98;10.80;;;;;;;-144.30;34.69;83297.81;5069492;28;20199;-52
2023/05/19 09:01:07;;;;;;;12.23;9.10;;;;;;;-144.30;34.98;83325.63;5070825;28;20198;-54
2023/05/19 09:03:37;;;;;;;9.88;8.93;;;;;;;-144.30;34.39;83262.03;5073162;28;20294;-57
2023/05/19 09:06:07;;;;;;;10.38;9.43;;;;;;;-144.30;33.89;83178.59;5073265;28;20640;-55
2023/05/19 09:08:34;;;;;;;11.93;10.73;;;;;;;-144.30;33.70;83212.38;5073124;28;20260;-56
2023/05/19 09:11:01;;;;;;;13.10;10.23;;;;;;;-144.30;33.09;83144.84;5073196;28;20200;-57
2023/05/19 09:13:28;;;;;;;13.48;10.75;;;;;;;-144.30;33.19;83190.53;5072657;28;20647;-57
2023/05/19 09:15:56;;;;;;;10.80;9.88;;;;;;;-144.30;33.09;83234.22;5073097;28;20726;-56
2023/05/19 09:18:25;;;;;;;11.15;9.32;;;;;;;-144.30;33.07;83250.13;5072650;28;20206;-52
2023/05/19 09:20:59;;;;;;;9.07;8.38;;;;;;;-144.30;32.94;83152.78;5073020;28;20714;-53
2023/05/19 09:23:30;;;;;;;11.55;10.43;;;;;;;-144.30;32.69;83126.94;5072694;28;20192;-53
2023/05/19 09:25:57;;;;;;;13.52;12.13;;;;;;;-144.30;32.94;83105.09;5072710;28;20298;-54
2023/05/19 09:28:25;;;;;;;17.88;10.98;;;;;;;-144.30;32.73;83097.16;5072786;28;20192;-57
2023/05/19 09:31:03;;;;;;;12.88;11.50;;;;;;;-144.30;32.97;83154.75;5073046;28;20192;-54
2023/05/19 09:33:30;;;;;;;13.35;10.07;;;;;;;-144.30;32.96;83087.22;5072673;28;20219;-54
2023/05/19 09:35:57;;;;;;;11.65;9.20;;;;;;;-144.30;32.60;83083.25;5072662;28;20234;-54
2023/05/19 09:38:25;;;;;;;13.20;10.35;;;;;;;-144.30;32.78;83103.13;5072335;28;20637;-52
2023/05/19 09:40:56;;;;;;;11.07;10.18;;;;;;;-144.30;31.88;83119.00;5072704;28;20296;-54
2023/05/19 09:43:23;;;;;;;12.93;11.63;;;;;;;-144.30;32.03;83053.44;5072402;28;20196;-53
2023/05/19 09:45:55;;;;;;;13.35;10.55;;;;;;;-144.30;31.42;83027.63;5072375;28;20202;-54
2023/05/19 09:48:22;;;;;;;11.88;10.82;;;;;;;-144.30;31.66;83027.63;5070851;28;20196;-52
2023/05/19 09:50:50;;;;;;;12.05;10.05;;;;;;;-144.30;31.40;83164.69;5072058;28;20215;-54
2023/05/19 09:53:17;;;;;;;11.63;10.48;;;;;;;-144.30;31.83;83319.66;5072165;28;20599;-54
2023/05/19 09:55:45;;;;;;;10.80;9.75;;;;;;;-144.30;32.95;83542.19;5072313;28;20230;-53
2023/05/19 09:58:17;;;;;;;11.35;10.00;;;;;;;-144.30;34.45;83623.66;5072301;28;20275;-53
2023/05/19 10:00:44;;;;;;;11.60;10.23;;;;;;;-144.30;35.37;83806.44;5072378;28;20192;-56
2023/05/19 10:03:13;;;;;;;11.73;10.63;;;;;;;-144.30;36.13;83850.16;5072165;28;20725;-56
2023/05/19 10:05:41;;;;;;;12.60;11.45;;;;;;;-144.30;37.39;83969.38;5072021;28;20287;-56
2023/05/19 10:08:09;;;;;;;17.17;13.93;;;;;;;-144.30;38.25;84029.00;5071992;28;20196;-53
2023/05/19 10:10:37;;;;;;;25.92;21.77;;;;;;;-144.30;39.75;84034.97;5072037;28;20226;-56
2023/05/19 10:13:04;;;;;;;15.40;11.85;;;;;;;-144.30;40.60;83921.69;5069580;28;20196;-54
2023/05/19 10:15:33;;;;;;;15.23;13.50;;;;;;;-144.30;41.13;84104.50;5070144;28;20289;-54
2023/05/19 10:18:03;;;;;;;14.63;12.80;;;;;;;-144.30;41.38;84156.19;5070321;28;20196;-53
2023/05/19 10:20:31;;;;;;;12.30;11.27;;;;;;;-144.30;39.87;84162.16;5070346;28;20205;-53
2023/05/19 10:22:58;;;;;;;12.25;11.15;;;;;;;-144.30;40.99;84174.06;5070502;28;20192;-53
2023/05/19 10:25:25;;;;;;;14.20;11.40;;;;;;;-144.30;41.30;84589.41;5070341;28;20191;-53
2023/05/19 10:28:01;;;;;;;18.55;13.00;;;;;;;-144.30;41.73;84100.53;5070362;28;20753;-53
2023/05/19 10:30:31;;;;;;;12.48;11.32;;;;;;;-144.30;41.34;84184.00;5070165;28;20219;-55
2023/05/19 10:33:01;;;;;;;14.73;11.15;;;;;;;-144.30;40.77;84150.22;5068110;28;20676;-55
2023/05/19 10:35:40;;;;;;;14.63;11.73;;;;;;;-144.30;40.75;84124.38;5070141;28;20211;-55
2023/05/19 10:38:16;;;;;;;12.43;11.15;;;;;;;-144.30;40.08;84128.34;5069213;28;20198;-55
2023/05/19 10:40:53;;;;;;;12.60;11.32;;;;;;;-144.30;39.53;84076.69;5068714;28;20327;-58
2023/05/19 10:43:31;;;;;;;15.93;11.10;;;;;;;-144.30;39.14;84023.03;5068084;28;20278;-55
2023/05/19 10:45:58;;;;;;;15.68;10.70;;;;;;;-144.30;38.28;83999.19;5067560;28;20188;-57
2023/05/19 10:48:26;;;;;;;21.70;11.15;;;;;;;-144.30;38.11;83977.34;5070113;28;20699;-56
2023/05/19 10:50:54;;;;;;;13.00;11.80;;;;;;;-144.30;37.84;84007.16;5070059;28;20196;-57
2023/05/19 10:53:22;;;;;;;15.98;12.88;;;;;;;-144.30;37.83;84001.19;5070204;28;20289;-56
2023/05/19 10:55:54;;;;;;;12.02;10.25;;;;;;;-144.30;37.86;84005.16;5068696;28;20220;-56
2023/05/19 10:58:50;;;;;;;11.95;10.57;;;;;;;-144.30;39.18;84040.91;5067893;28;20282;-55
2023/05/19 11:01:19;;;;;;;11.50;10.38;;;;;;;-144.30;39.20;84102.53;5067545;28;20250;-53
2023/05/19 11:03:50;;;;;;;16.65;10.85;;;;;;;-144.30;39.78;84094.56;5069037;28;20226;-55
2023/05/19 11:06:24;;;;;;;12.63;11.32;;;;;;;-144.30;40.71;84148.22;5068547;28;20192;-54
2023/05/19 11:08:57;;;;;;;16.73;11.82;;;;;;;-144.30;40.45;84144.25;5069349;28;20326;-55
2023/05/19 11:11:24;;;;;;;14.15;11.70;;;;;;;-144.30;40.69;84094.56;5066787;28;20231;-53
2023/05/19 11:13:51;;;;;;;11.80;10.70;;;;;;;-144.30;39.79;84382.72;5068533;28;20228;-54
2023/05/19 11:16:21;;;;;;;10.88;9.63;;;;;;;-144.30;38.72;84052.84;5069243;28;20330;-53
2023/05/19 11:18:50;;;;;;;15.32;9.63;;;;;;;-144.30;38.73;84110.47;5069305;28;20192;-53
2023/05/19 11:21:19;;;;;;;11.80;8.95;;;;;;;-144.30;38.94;84134.31;5068888;28;20265;-55
2023/05/19 11:23:46;;;;;;;9.30;8.40;;;;;;;-144.30;39.41;84482.09;5068306;28;20202;-53
2023/05/19 11:26:13;;;;;;;13.05;8.95;;;;;;;-144.30;39.77;84203.88;5068940;28;20195;-53
2023/05/19 11:28:41;;;;;;;9.50;8.68;;;;;;;-144.30;40.48;84178.03;5067635;28;20203;-54
2023/05/19 11:31:10;;;;;;;12.77;8.88;;;;;;;-144.30;40.39;84154.19;5067806;28;20283;-55
2023/05/19 11:33:38;;;;;;;9.20;8.40;;;;;;;-144.30;40.55;84180.03;5067675;28;20287;-56
2023/05/19 11:36:06;;;;;;;9.65;8.43;;;;;;;-144.30;40.31;84756.38;5067025;28;20208;-57
2023/05/19 11:38:35;;;;;;;10.60;9.55;;;;;;;-144.30;40.23;84275.41;5069372;28;20689;-57
2023/05/19 11:41:03;;;;;;;9.57;8.77;;;;;;;-144.30;40.14;84341.00;5068921;28;20198;-56
2023/05/19 11:43:30;;;;;;;9.80;8.32;;;;;;;-144.30;40.41;84327.09;5068500;28;25072;-56
2023/05/19 11:45:57;;;;;;;8.55;7.88;;;;;;;-144.30;40.18;84354.91;5069138;28;20686;-55
2023/05/19 11:48:26;;;;;;;8.90;8.00;;;;;;;-144.30;40.46;84295.28;5069168;28;20301;-56
2023/05/19 11:50:53;;;;;;;10.45;7.50;;;;;;;-144.30;40.74;84279.38;5068774;28;20208;-56
2023/05/19 11:53:22;;;;;;;10.10;8.43;;;;;;;-144.30;40.13;84184.00;5068842;28;20288;-57
2023/05/19 11:55:49;;;;;;;10.23;9.20;;;;;;;-144.30;39.58;84124.38;5068711;28;20287;-58
2023/05/19 11:58:16;;;;;;;11.05;9.00;;;;;;;-144.30;39.10;84152.22;5068742;28;20203;-56
2023/05/19 12:00:46;;;;;;;10.30;9.32;;;;;;;-144.30;38.76;84062.78;5066355;28;20196;-56
2023/05/19 12:03:13;;;;;;;11.95;9.77;;;;;;;-144.30;38.51;84032.97;5068664;28;20192;-57
2023/05/19 12:05:45;;;;;;;10.38;9.25;;;;;;;-144.30;38.33;84013.09;5068789;28;20191;-57
2023/05/19 12:08:12;;;;;;;12.38;11.20;;;;;;;-144.30;38.10;83937.59;5068710;28;20877;-56
2023/05/19 12:10:41;;;;;;;10.25;9.23;;;;;;;-144.30;37.66;83969.38;5068425;28;20195;-56
2023/05/19 12:13:08;;;;;;;10.70;9.68;;;;;;;-144.30;37.71;83987.28;5068674;28;20188;-54
2023/05/19 12:15:36;;;;;;;15.60;10.25;;;;;;;-144.30;38.05;84003.16;5068459;28;20227;-54
2023/05/19 12:18:03;;;;;;;10.35;9.38;;;;;;;-144.30;37.98;83979.31;5065990;28;20216;-53
2023/05/19 12:20:34;;;;;;;12.82;9.45;;;;;;;-144.30;38.18;83961.44;5068380;28;20206;-54
2023/05/19 12:23:02;;;;;;;12.10;10.90;;;;;;;-144.30;38.18;83937.59;5068400;28;20192;-53
2023/05/19 12:25:29;;;;;;;10.38;9.40;;;;;;;-144.30;37.81;83973.38;5069105;28;20204;-56
2023/05/19 12:28:01;;;;;;;11.05;10.02;;;;;;;-144.30;38.06;83997.22;5069694;28;20279;-54
2023/05/19 12:30:29;;;;;;;13.40;10.55;;;;;;;-144.30;38.20;84009.13;5069014;28;20208;-54
2023/05/19 12:32:57;;;;;;;13.95;11.20;;;;;;;-144.30;38.64;83977.34;5068964;28;20333;-54
2023/05/19 12:35:27;;;;;;;13.80;12.40;;;;;;;-144.30;38.23;83945.53;5069938;28;20667;-54
2023/05/19 12:37:54;;;;;;;11.27;9.05;;;;;;;-144.30;38.49;83981.31;5073618;28;20227;-54
2023/05/19 12:40:22;;;;;;;10.35;9.18;;;;;;;-144.30;38.30;83967.41;5073819;28;20680;-54
2023/05/19 12:42:56;;;;;;;11.55;10.45;;;;;;;-144.30;38.29;83977.34;5073677;28;20294;-54
2023/05/19 12:45:26;;;;;;;12.30;9.05;;;;;;;-144.30;38.20;83973.38;5073424;28;20563;-54
2023/05/19 12:47:54;;;;;;;11.00;9.00;;;;;;;-144.30;37.90;84009.13;5073234;28;20668;-54
2023/05/19 12:50:21;;;;;;;10.60;8.75;;;;;;;-144.30;38.01;84048.88;5072513;28;20204;-54
2023/05/19 12:52:50;;;;;;;9.98;8.98;;;;;;;-144.30;38.03;84021.06;5073059;28;20196;-54
2023/05/19 12:55:19;;;;;;;11.73;10.73;;;;;;;-144.30;37.86;83965.41;5070583;28;20202;-54
2023/05/19 12:57:50;;;;;;;11.40;10.02;;;;;;;-144.30;37.61;84040.91;5072748;28;20656;-53
2023/05/19 13:00:19;;;;;;;10.10;9.15;;;;;;;-144.30;38.03;84001.19;5059439;28;20223;-57
2023/05/19 13:02:58;;;;;;;10.55;9.02;;;;;;;-144.30;37.33;84031.00;5071315;28;20227;-57
2023/05/19 13:05:26;;;;;;;9.32;8.43;;;;;;;-144.30;36.85;84019.06;5068824;28;20357;-55
2023/05/19 13:08:03;;;;;;;10.68;9.60;;;;;;;-144.30;37.27;83969.38;5071355;28;20297;-57
2023/05/19 13:10:31;;;;;;;14.35;9.38;;;;;;;-144.30;37.52;83947.53;5068855;28;20251;-56
2023/05/19 13:13:00;;;;;;;16.30;9.90;;;;;;;-144.30;37.02;83957.47;5071756;28;20216;-55
2023/05/19 13:15:30;;;;;;;16.50;8.95;;;;;;;-144.30;36.73;83965.41;5072413;28;20627;-55
2023/05/19 13:17:59;;;;;;;9.77;8.75;;;;;;;-144.30;37.14;83963.44;5072621;28;20634;-55
2023/05/19 13:20:27;;;;;;;13.38;10.43;;;;;;;-144.30;37.50;83937.59;5071483;28;20314;-54
2023/05/19 13:22:54;;;;;;;10.88;9.70;;;;;;;-144.30;37.64;83981.31;5072575;28;20224;-55
2023/05/19 13:25:21;;;;;;;10.88;9.50;;;;;;;-144.30;38.52;84046.88;5071603;28;20307;-55
2023/05/19 13:27:49;;;;;;;12.50;10.38;;;;;;;-144.30;39.16;83953.50;5071874;28;20588;-52
2023/05/19 13:30:17;;;;;;;12.05;9.88;;;;;;;-144.30;38.89;84031.00;5072454;28;20259;-53
2023/05/19 13:32:44;;;;;;;13.85;9.95;;;;;;;-144.30;38.53;83949.50;5071016;28;20230;-57
2023/05/19 13:35:13;;;;;;;14.32;11.95;;;;;;;-144.30;38.47;83953.50;5072103;28;20230;-53
2023/05/19 13:37:42;;;;;;;12.65;10.38;;;;;;;-144.30;37.89;83941.56;5071852;28;20224;-54
2023/05/19 13:40:10;;;;;;;9.73;8.88;;;;;;;-144.30;37.93;83961.44;5071815;28;20664;-52
2023/05/19 13:42:37;;;;;;;12.40;9.23;;;;;;;-144.30;38.05;83985.28;5072177;28;20220;-55
2023/05/19 13:45:04;;;;;;;14.35;9.40;;;;;;;-144.30;38.01;83977.34;5072633;28;20605;-57
2023/05/19 13:47:31;;;;;;;11.25;10.02;;;;;;;-144.30;38.21;83997.22;5071476;28;20216;-56
2023/05/19 13:49:59;;;;;;;12.65;9.38;;;;;;;-144.30;38.84;84044.91;5071414;28;20222;-56
2023/05/19 13:52:27;;;;;;;14.30;9.63;;;;;;;-144.30;39.43;84062.78;5071312;28;20224;-54
2023/05/19 13:54:55;;;;;;;10.55;8.73;;;;;;;-144.30;39.41;84070.72;5071966;28;20228;-54
2023/05/19 13:57:23;;;;;;;10.93;9.82;;;;;;;-144.30;40.13;84080.66;5071879;28;20530;-54
2023/05/19 13:59:50;;;;;;;13.27;10.85;;;;;;;-144.30;40.49;84082.66;5065572;28;20224;-54
2023/05/19 14:02:17;;;;;;;17.42;12.55;;;;;;;-144.30;40.94;84108.50;5071361;28;20239;-56
2023/05/19 14:04:45;;;;;;;10.90;9.90;;;;;;;-144.30;41.38;84128.34;5071446;28;20267;-57
2023/05/19 14:07:12;;;;;;;12.27;10.80;;;;;;;-144.30;42.45;84118.41;5072136;28;20663;-56
2023/05/19 14:09:40;;;;;;;11.63;10.05;;;;;;;-144.30;40.53;84088.63;5055762;28;20199;-54
2023/05/19 14:12:10;;;;;;;16.02;10.73;;;;;;;-144.30;40.88;84092.59;5052225;28;20200;-54
2023/05/19 14:14:37;;;;;;;10.93;9.82;;;;;;;-144.30;40.72;84074.72;5051151;28;20314;-54
2023/05/19 14:17:05;;;;;;;10.63;9.73;;;;;;;-144.30;40.66;84040.91;5051152;28;20632;-54
2023/05/19 14:19:32;;;;;;;12.93;10.18;;;;;;;-144.30;40.74;84138.28;5051576;28;20235;-53
2023/05/19 14:21:59;;;;;;;7.93;7.20;;;;;;;-144.30;41.22;84251.56;5051578;28;20279;-57
2023/05/19 14:24:26;;;;;;;10.13;7.30;;;;;;;-144.30;42.85;84378.75;5050742;28;20210;-57
2023/05/19 14:26:54;;;;;;;7.90;6.35;;;;;;;-144.30;45.30;84501.97;5051736;28;20195;-52
2023/05/19 14:29:21;;;;;;;7.18;6.47;;;;;;;-144.30;47.34;84637.13;5051820;28;20197;-52
2023/05/19 14:31:48;;;;;;;9.48;6.88;;;;;;;-144.30;49.07;84617.25;5051938;28;20199;-53
2023/05/19 14:34:19;;;;;;;8.73;6.10;;;;;;;-144.30;50.52;84704.69;5051405;28;20203;-56
2023/05/19 14:36:46;;;;;;;7.68;6.82;;;;;;;-144.30;51.43;84694.75;5051421;28;20225;-53
2023/05/19 14:39:13;;;;;;;8.63;6.20;;;;;;;-144.30;52.37;84756.38;5051402;28;20211;-53
2023/05/19 14:41:40;;;;;;;8.85;6.10;;;;;;;-144.30;53.72;84780.22;5051269;28;20192;-53
2023/05/19 14:44:08;;;;;;;7.10;6.40;;;;;;;-144.30;53.86;84748.44;5051517;28;20694;-53
2023/05/19 14:46:35;;;;;;;7.25;5.95;;;;;;;-144.30;54.72;84792.16;5051349;28;20615;-56
2023/05/19 14:49:03;;;;;;;12.43;5.80;;;;;;;-144.30;55.45;84812.03;5058953;28;20675;-57
2023/05/19 14:51:30;;;;;;;9.60;7.10;;;;;;;-144.30;56.34;84819.97;5071186;28;20572;-58
2023/05/19 14:53:57;;;;;;;7.75;6.57;;;;;;;-144.30;57.26;84812.03;5071050;28;20208;-56
2023/05/19 14:56:24;;;;;;;8.85;7.45;;;;;;;-144.30;59.48;84857.75;5071140;28;20200;-56
2023/05/19 14:58:51;;;;;;;9.55;8.20;;;;;;;-144.30;61.62;84837.88;5070469;28;20717;-57
2023/05/19 15:01:19;;;;;;;13.38;7.70;;;;;;;-144.30;63.82;84867.69;5070836;28;20199;-56
2023/05/19 15:03:46;;;;;;;9.20;8.23;;;;;;;-144.30;64.44;84861.72;5070511;28;20287;-56
2023/05/19 15:06:13;;;;;;;11.45;8.30;;;;;;;-144.30;64.67;84895.50;5070823;28;20196;-56
2023/05/19 15:08:40;;;;;;;10.95;8.55;;;;;;;-144.30;64.67;84879.59;5071074;28;20188;-57
2023/05/19 15:11:07;;;;;;;11.82;8.57;;;;;;;-144.30;64.94;84933.28;5071028;28;20638;-56
2023/05/19 15:13:34;;;;;;;13.00;8.57;;;;;;;-144.30;65.17;84921.34;5070501;28;20216;-57
2023/05/19 15:16:01;;;;;;;11.73;9.27;;;;;;;-144.30;67.24;84988.94;5070545;28;20217;-53
2023/05/19 15:18:29;;;;;;;10.13;9.07;;;;;;;-144.30;68.11;84943.22;5070475;28;20234;-53
2023/05/19 15:20:56;;;;;;;10.05;9.00;;;;;;;-144.30;67.79;84982.97;5070886;28;20583;-56
2023/05/19 15:23:23;;;;;;;11.52;9.23;;;;;;;-144.30;68.11;84963.09;5070354;28;20206;-56
2023/05/19 15:25:51;;;;;;;12.25;9.30;;;;;;;-144.30;68.31;85169.81;5069909;28;20200;-59
2023/05/19 15:28:19;;;;;;;15.20;10.20;;;;;;;-144.30;68.86;85002.84;5069449;28;20314;-57